Buoy 41580

sailwx.info

Track history (hours):
 
Tides and Currents Weather Stations Pressure Air Temp Water Temp Dewpoint Dewpoint Depression Visibility Wind Speed Wind Dir Waves Ship Positions

Drifting buoy 41580

Last reported at 2015-Jul-03 01:00 UTC. Time now 2015-Jul-03 06:10 UTC.
Position N 21°08' W 046°30'.

Barometer 1022.0 mb
Water temperature 25.8 ° C

Date/timePositionNaut miles runAvg speedWind from/ knotsBaromVisibWave heightAir tempDewpointWater temp
2015-Jul-03 01:00N 21°08' W 046°30'1 0.7 1022.0 25.8
2015-Jul-03 00:00N 21°07' W 046°30'1 1.4 1021.7 25.8
2015-Jul-02 23:00N 21°06' W 046°28'0 0.0 1021.6 25.8
2015-Jul-02 22:00N 21°06' W 046°28'2 0.7 1021.7 25.9
2015-Jul-02 19:00N 21°06' W 046°26'6 0.8 1020.9 26.0
2015-Jul-02 12:00N 21°01' W 046°23'5 0.7 1022.2 25.8
2015-Jul-02 05:00N 20°57' W 046°22'0 0.0 1020.9 25.8
2015-Jul-02 01:00N 20°57' W 046°22'4 1.0 1022.9 25.8
2015-Jul-01 21:00N 20°53' W 046°23'3 0.4 1020.7 25.9
2015-Jul-01 14:00N 20°50' W 046°24'2 0.6 1022.5 25.8
2015-Jul-01 11:00N 20°48' W 046°24'0 0.0 1022.5 25.7
2015-Jul-01 10:00N 20°48' W 046°24'0 0.1 1022.2 25.7
2015-Jul-01 09:00N 20°48' W 046°24'0 0.4 1021.7 25.7
2015-Jul-01 08:00N 20°48' W 046°24'4 0.4 1021.4 25.7
2015-Jun-30 23:00N 20°46' W 046°27'1 0.4 1022.0 25.8
2015-Jun-30 21:00N 20°45' W 046°28'0 0.0 1021.0 25.9
2015-Jun-30 20:00N 20°45' W 046°28'2 0.8 1020.9 25.9
2015-Jun-30 17:00N 20°43' W 046°29'1 0.7 1021.8 25.9
2015-Jun-30 16:00N 20°44' W 046°29'2 0.3 1022.4 25.9
2015-Jun-30 08:00N 20°41' W 046°29'1 0.1 1022.3 25.7
2015-Jun-30 01:00N 20°41' W 046°30'2 0.4 1023.7 25.8
2015-Jun-29 19:00N 20°41' W 046°32'1 0.1 1021.5 25.9
2015-Jun-29 13:00N 20°41' W 046°33'1 1.0 1023.7 25.7
2015-Jun-29 12:00N 20°40' W 046°33'0 0.0 1023.5 25.7
2015-Jun-29 11:00N 20°40' W 046°33'1 0.2 1023.3 25.7
2015-Jun-29 04:00N 20°39' W 046°33'1 0.1 1022.4 25.7
2015-Jun-28 23:00N 20°39' W 046°33'2 0.1 1022.4 25.7
2015-Jun-28 06:00N 20°40' W 046°31'0 0.0 1022.1 25.6
2015-Jun-28 01:00N 20°40' W 046°30'2 0.4 1024.8 25.7
2015-Jun-27 20:00N 20°38' W 046°31'5 0.7 1022.8 25.8
2015-Jun-27 12:00N 20°36' W 046°25'2 0.3 1025.1 25.6
2015-Jun-27 06:00N 20°35' W 046°24'0 0.0 1024.4 25.6
2015-Jun-27 05:00N 20°35' W 046°24'3 0.6 1024.7 25.6
2015-Jun-27 01:00N 20°33' W 046°22'5 1.0 1026.4 25.6
2015-Jun-26 20:00N 20°28' W 046°21'0 0.0 1023.7 25.7
2015-Jun-26 17:00N 20°28' W 046°21'2 1.6 1024.4 25.7
2015-Jun-26 16:00N 20°27' W 046°21'2 1.2 1024.8 25.7
2015-Jun-26 14:00N 20°24' W 046°21'1 0.6 1025.4 25.6
2015-Jun-26 12:00N 20°23' W 046°20'2 0.5 1025.4 25.5
2015-Jun-26 08:00N 20°22' W 046°21'1 0.6 1023.6 25.5
2015-Jun-26 07:00N 20°21' W 046°21'1 1.3 1023.3 25.5
2015-Jun-26 06:00N 20°20' W 046°21'0 0.1 1023.4 25.5
2015-Jun-26 04:00N 20°20' W 046°21'2 0.6 1024.0 25.5
2015-Jun-26 00:00N 20°18' W 046°21'1 0.8 1025.1 25.6
2015-Jun-25 23:00N 20°17' W 046°21'1 0.3 1024.4 25.6
2015-Jun-25 19:00N 20°16' W 046°22'0 0.1 1023.2 25.7
2015-Jun-25 18:00N 20°16' W 046°22'1 0.6 1023.4 25.7
2015-Jun-25 17:00N 20°16' W 046°21'1 0.8 1023.4 25.7
2015-Jun-25 16:00N 20°15' W 046°22'1 0.3 1023.7 25.6
2015-Jun-25 13:00N 20°15' W 046°23'0 0.3 1024.5 25.5
2015-Jun-25 12:00N 20°15' W 046°23'2 1.9 1024.0 25.5
2015-Jun-25 11:00N 20°13' W 046°23'0 0.2 1023.8 25.5
2015-Jun-25 09:00N 20°14' W 046°22'0 0.2 1023.0 25.5
2015-Jun-25 07:00N 20°13' W 046°23'0 0.0 1022.6 25.5
2015-Jun-25 06:00N 20°13' W 046°23'2 0.3 1022.5 25.5
2015-Jun-25 00:00N 20°12' W 046°23'1 0.7 1024.1 25.5
2015-Jun-24 23:00N 20°11' W 046°23'1 0.5 1023.8 25.5
2015-Jun-24 21:00N 20°10' W 046°23'0 0.4 1022.9 25.5
2015-Jun-24 20:00N 20°10' W 046°24'0 0.3 1022.5 25.6
2015-Jun-24 19:00N 20°10' W 046°24'1 0.6 1022.3 25.6
2015-Jun-24 18:00N 20°10' W 046°24'1 0.1 1022.4 25.6
2015-Jun-24 12:00N 20°10' W 046°24'0 0.1 1023.3 25.5
2015-Jun-24 08:00N 20°10' W 046°24'2 0.6 1022.4 25.5
2015-Jun-24 05:00N 20°10' W 046°26'1 0.2 1022.8 25.5
2015-Jun-24 00:00N 20°11' W 046°25'1 0.1 1024.0 25.5
2015-Jun-23 20:00N 20°11' W 046°24'0 0.0 1022.5 25.6
2015-Jun-23 19:00N 20°11' W 046°24'2 0.3 1022.5 25.6
2015-Jun-23 13:00N 20°11' W 046°23'3 0.4 1024.0 25.5
2015-Jun-23 05:00N 20°11' W 046°19'   1022.8 25.5
Track history (hours):
 
Tides and Currents Weather Stations Pressure Air Temp Water Temp Dewpoint Dewpoint Depression Visibility Wind Speed Wind Dir Waves Ship Positions

Drifting buoy 41580

Last reported at 2015-Jul-03 01:00 UTC. Time now 2015-Jul-03 06:10 UTC.
Position N 21°08' W 046°30'.

Barometer 1022.0 mb
Water temperature 25.8 ° C

Date/timePositionNaut miles runAvg speedWind from/ knotsBaromVisibWave heightAir tempDewpointWater temp
2015-Jul-03 01:00N 21°08' W 046°30'1 0.7 1022.0 25.8
2015-Jul-03 00:00N 21°07' W 046°30'1 1.4 1021.7 25.8
2015-Jul-02 23:00N 21°06' W 046°28'0 0.0 1021.6 25.8
2015-Jul-02 22:00N 21°06' W 046°28'2 0.7 1021.7 25.9
2015-Jul-02 19:00N 21°06' W 046°26'6 0.8 1020.9 26.0
2015-Jul-02 12:00N 21°01' W 046°23'5 0.7 1022.2 25.8
2015-Jul-02 05:00N 20°57' W 046°22'0 0.0 1020.9 25.8
2015-Jul-02 01:00N 20°57' W 046°22'4 1.0 1022.9 25.8
2015-Jul-01 21:00N 20°53' W 046°23'3 0.4 1020.7 25.9
2015-Jul-01 14:00N 20°50' W 046°24'2 0.6 1022.5 25.8
2015-Jul-01 11:00N 20°48' W 046°24'0 0.0 1022.5 25.7
2015-Jul-01 10:00N 20°48' W 046°24'0 0.1 1022.2 25.7
2015-Jul-01 09:00N 20°48' W 046°24'0 0.4 1021.7 25.7
2015-Jul-01 08:00N 20°48' W 046°24'4 0.4 1021.4 25.7
2015-Jun-30 23:00N 20°46' W 046°27'1 0.4 1022.0 25.8
2015-Jun-30 21:00N 20°45' W 046°28'0 0.0 1021.0 25.9
2015-Jun-30 20:00N 20°45' W 046°28'2 0.8 1020.9 25.9
2015-Jun-30 17:00N 20°43' W 046°29'1 0.7 1021.8 25.9
2015-Jun-30 16:00N 20°44' W 046°29'2 0.3 1022.4 25.9
2015-Jun-30 08:00N 20°41' W 046°29'1 0.1 1022.3 25.7
2015-Jun-30 01:00N 20°41' W 046°30'2 0.4 1023.7 25.8
2015-Jun-29 19:00N 20°41' W 046°32'1 0.1 1021.5 25.9
2015-Jun-29 13:00N 20°41' W 046°33'1 1.0 1023.7 25.7
2015-Jun-29 12:00N 20°40' W 046°33'0 0.0 1023.5 25.7
2015-Jun-29 11:00N 20°40' W 046°33'1 0.2 1023.3 25.7
2015-Jun-29 04:00N 20°39' W 046°33'1 0.1 1022.4 25.7
2015-Jun-28 23:00N 20°39' W 046°33'2 0.1 1022.4 25.7
2015-Jun-28 06:00N 20°40' W 046°31'0 0.0 1022.1 25.6
2015-Jun-28 01:00N 20°40' W 046°30'2 0.4 1024.8 25.7
2015-Jun-27 20:00N 20°38' W 046°31'5 0.7 1022.8 25.8
2015-Jun-27 12:00N 20°36' W 046°25'2 0.3 1025.1 25.6
2015-Jun-27 06:00N 20°35' W 046°24'0 0.0 1024.4 25.6
2015-Jun-27 05:00N 20°35' W 046°24'3 0.6 1024.7 25.6
2015-Jun-27 01:00N 20°33' W 046°22'5 1.0 1026.4 25.6
2015-Jun-26 20:00N 20°28' W 046°21'0 0.0 1023.7 25.7
2015-Jun-26 17:00N 20°28' W 046°21'2 1.6 1024.4 25.7
2015-Jun-26 16:00N 20°27' W 046°21'2 1.2 1024.8 25.7
2015-Jun-26 14:00N 20°24' W 046°21'1 0.6 1025.4 25.6
2015-Jun-26 12:00N 20°23' W 046°20'2 0.5 1025.4 25.5
2015-Jun-26 08:00N 20°22' W 046°21'1 0.6 1023.6 25.5
2015-Jun-26 07:00N 20°21' W 046°21'1 1.3 1023.3 25.5
2015-Jun-26 06:00N 20°20' W 046°21'0 0.1 1023.4 25.5
2015-Jun-26 04:00N 20°20' W 046°21'2 0.6 1024.0 25.5
2015-Jun-26 00:00N 20°18' W 046°21'1 0.8 1025.1 25.6
2015-Jun-25 23:00N 20°17' W 046°21'1 0.3 1024.4 25.6
2015-Jun-25 19:00N 20°16' W 046°22'0 0.1 1023.2 25.7
2015-Jun-25 18:00N 20°16' W 046°22'1 0.6 1023.4 25.7
2015-Jun-25 17:00N 20°16' W 046°21'1 0.8 1023.4 25.7
2015-Jun-25 16:00N 20°15' W 046°22'1 0.3 1023.7 25.6
2015-Jun-25 13:00N 20°15' W 046°23'0 0.3 1024.5 25.5
2015-Jun-25 12:00N 20°15' W 046°23'2 1.9 1024.0 25.5
2015-Jun-25 11:00N 20°13' W 046°23'0 0.2 1023.8 25.5
2015-Jun-25 09:00N 20°14' W 046°22'0 0.2 1023.0 25.5
2015-Jun-25 07:00N 20°13' W 046°23'0 0.0 1022.6 25.5
2015-Jun-25 06:00N 20°13' W 046°23'2 0.3 1022.5 25.5
2015-Jun-25 00:00N 20°12' W 046°23'1 0.7 1024.1 25.5
2015-Jun-24 23:00N 20°11' W 046°23'1 0.5 1023.8 25.5
2015-Jun-24 21:00N 20°10' W 046°23'0 0.4 1022.9 25.5
2015-Jun-24 20:00N 20°10' W 046°24'0 0.3 1022.5 25.6
2015-Jun-24 19:00N 20°10' W 046°24'1 0.6 1022.3 25.6
2015-Jun-24 18:00N 20°10' W 046°24'1 0.1 1022.4 25.6
2015-Jun-24 12:00N 20°10' W 046°24'0 0.1 1023.3 25.5
2015-Jun-24 08:00N 20°10' W 046°24'2 0.6 1022.4 25.5
2015-Jun-24 05:00N 20°10' W 046°26'1 0.2 1022.8 25.5
2015-Jun-24 00:00N 20°11' W 046°25'1 0.1 1024.0 25.5
2015-Jun-23 20:00N 20°11' W 046°24'0 0.0 1022.5 25.6
2015-Jun-23 19:00N 20°11' W 046°24'2 0.3 1022.5 25.6
2015-Jun-23 13:00N 20°11' W 046°23'3 0.4 1024.0 25.5
2015-Jun-23 05:00N 20°11' W 046°19'   1022.8 25.5

Dump ship's entire track history